createdAt,value
2018-11-20T06:03:40.418Z,23.07
2018-11-20T06:08:43.767Z,19.70
2018-11-20T06:13:57.137Z,19.73
2018-11-20T06:19:00.486Z,21.57
2018-11-20T06:24:03.835Z,21.03
2018-11-20T06:29:07.258Z,18.97
2018-11-20T06:34:17.306Z,19.17
2018-11-20T06:39:20.631Z,18.17
2018-11-20T06:44:24.741Z,18.67
2018-11-20T06:49:28.081Z,15.00
2018-11-20T06:54:32.811Z,16.50
2018-11-20T06:59:36.924Z,20.57
2018-11-20T07:04:40.257Z,16.10
2018-11-20T07:09:44.357Z,16.87
2018-11-20T07:14:47.962Z,14.50
2018-11-20T07:19:51.309Z,13.03
2018-11-20T07:24:54.780Z,14.73
2018-11-20T07:29:58.153Z,12.57
2018-11-20T07:35:01.514Z,9.93
2018-11-20T07:40:04.825Z,9.37
2018-11-20T07:45:08.472Z,9.63
2018-11-20T07:50:11.823Z,9.13
2018-11-20T07:55:15.169Z,9.27
2018-11-20T08:00:18.516Z,9.87
2018-11-20T08:05:21.853Z,10.50
2018-11-20T08:10:25.957Z,11.83
2018-11-20T08:15:29.427Z,9.10
2018-11-20T08:20:32.639Z,8.17
2018-11-20T08:25:35.981Z,14.33
2018-11-20T08:30:39.330Z,9.07
2018-11-20T08:35:43.434Z,10.23
2018-11-20T08:40:46.759Z,10.63
2018-11-20T08:45:50.111Z,9.23
2018-11-20T08:50:53.450Z,8.53
2018-11-20T08:55:56.771Z,9.33
2018-11-20T09:01:00.122Z,10.60
2018-11-20T09:06:04.518Z,9.70
2018-11-20T09:11:07.879Z,10.33
2018-11-20T09:16:11.966Z,9.33
2018-11-20T09:21:15.320Z,8.83
2018-11-20T09:26:19.422Z,11.40
2018-11-20T09:31:22.781Z,8.03
2018-11-20T09:36:26.114Z,8.07
2018-11-20T09:41:29.447Z,10.37
2018-11-20T09:46:32.824Z,9.53
2018-11-20T09:51:36.154Z,8.03
2018-11-20T09:56:39.495Z,7.47
2018-11-20T10:01:42.850Z,7.47
2018-11-20T10:06:46.997Z,6.23
2018-11-20T10:11:50.302Z,7.90
2018-11-20T10:16:53.625Z,7.83
2018-11-20T10:21:56.978Z,7.73
2018-11-20T10:27:00.325Z,5.73
2018-11-20T10:32:04.426Z,6.50
2018-11-20T10:37:07.779Z,8.00
2018-11-20T10:42:11.121Z,6.73
2018-11-20T10:47:18.643Z,6.03
2018-11-20T10:52:27.670Z,6.93
2018-11-20T10:57:31.004Z,7.00
2018-11-20T11:08:02.475Z,8.02
2018-11-20T11:13:05.631Z,6.50
2018-11-20T11:18:08.996Z,5.23
2018-11-20T11:23:13.100Z,7.03
2018-11-20T11:28:16.462Z,7.43
2018-11-20T11:33:24.220Z,5.83
2018-11-20T11:38:23.149Z,6.73
2018-11-20T11:43:28.208Z,6.00
2018-11-20T11:48:31.538Z,5.23
2018-11-20T11:53:34.877Z,6.30
2018-11-20T11:58:38.351Z,5.03
